DAL491 KMIA-KATL
Flight info
| Callsign | DAL491 |
|---|---|
| Flight time | 1h 26m |
| Altitude | 28000 |
| Route | FLMGO2 STYMY Q77 MJAMS/N0456F270 Q77 SHRKS/N0463F280 LAIRI LARZZ JJEDI4 |
| Aircraft | B753/M-SDE2E3FGHIJ3J4J7RWXY/LB1 |
Departure
| Time | 2026-05-05 20:30 |
|---|---|
| Airport | Miami International Airport (KMIA) |
Arrival
| Time | 2026-05-05 21:56 |
|---|---|
| Airport | Hartsfield Jackson Atlanta International Airport (KATL) |
| Time | Latitude | Longitude | Altitude | Speed | Heading |
|---|---|---|---|---|---|
| 2026-05-05 19:46 | 25.79140 | -80.27711 | 14 ft | 0 kts | 98° |
| 2026-05-05 20:14 | 25.79141 | -80.27716 | 14 ft | 1 kts | 98° |
| 2026-05-05 20:14 | 25.79143 | -80.27731 | 14 ft | 2 kts | 98° |
| 2026-05-05 20:15 | 25.79145 | -80.27747 | 14 ft | 2 kts | 98° |
| 2026-05-05 20:15 | 25.79151 | -80.27761 | 14 ft | 2 kts | 139° |
| 2026-05-05 20:15 | 25.79164 | -80.27769 | 14 ft | 2 kts | 171° |
| 2026-05-05 20:15 | 25.79170 | -80.27769 | 14 ft | 0 kts | 187° |
| 2026-05-05 20:16 | 25.79149 | -80.27770 | 14 ft | 6 kts | 185° |
| 2026-05-05 20:16 | 25.79097 | -80.27778 | 14 ft | 7 kts | 193° |
| 2026-05-05 20:16 | 25.79065 | -80.27789 | 14 ft | 2 kts | 202° |
| 2026-05-05 20:16 | 25.79061 | -80.27792 | 14 ft | 0 kts | 203° |
| 2026-05-05 20:19 | 25.79039 | -80.27801 | 14 ft | 7 kts | 203° |
| 2026-05-05 20:19 | 25.78988 | -80.27825 | 14 ft | 7 kts | 202° |
| 2026-05-05 20:19 | 25.78946 | -80.27849 | 14 ft | 6 kts | 219° |
| 2026-05-05 20:19 | 25.78926 | -80.27887 | 14 ft | 5 kts | 261° |
| 2026-05-05 20:20 | 25.78922 | -80.27937 | 14 ft | 6 kts | 265° |
| 2026-05-05 20:20 | 25.78915 | -80.27985 | 14 ft | 6 kts | 258° |
| 2026-05-05 20:20 | 25.78907 | -80.28037 | 14 ft | 9 kts | 261° |
| 2026-05-05 20:20 | 25.78897 | -80.28140 | 14 ft | 18 kts | 265° |
| 2026-05-05 20:21 | 25.78888 | -80.28282 | 15 ft | 17 kts | 267° |
| 2026-05-05 20:21 | 25.78882 | -80.28409 | 17 ft | 15 kts | 267° |
| 2026-05-05 20:21 | 25.78877 | -80.28519 | 17 ft | 13 kts | 268° |
| 2026-05-05 20:21 | 25.78873 | -80.28622 | 17 ft | 12 kts | 268° |
| 2026-05-05 20:22 | 25.78870 | -80.28714 | 17 ft | 11 kts | 268° |
| 2026-05-05 20:22 | 25.78866 | -80.28812 | 17 ft | 14 kts | 265° |
| 2026-05-05 20:22 | 25.78844 | -80.28933 | 17 ft | 17 kts | 255° |
| 2026-05-05 20:22 | 25.78821 | -80.29075 | 17 ft | 20 kts | 267° |
| 2026-05-05 20:23 | 25.78812 | -80.29243 | 17 ft | 23 kts | 267° |
| 2026-05-05 20:23 | 25.78804 | -80.29434 | 15 ft | 27 kts | 268° |
| 2026-05-05 20:23 | 25.78796 | -80.29655 | 14 ft | 30 kts | 268° |
| 2026-05-05 20:23 | 25.78788 | -80.29896 | 14 ft | 32 kts | 267° |
| 2026-05-05 20:24 | 25.78783 | -80.30151 | 14 ft | 34 kts | 281° |
| 2026-05-05 20:24 | 25.78846 | -80.30414 | 14 ft | 36 kts | 267° |
| 2026-05-05 20:24 | 25.78834 | -80.30690 | 14 ft | 34 kts | 268° |
| 2026-05-05 20:24 | 25.78826 | -80.30926 | 14 ft | 26 kts | 268° |
| 2026-05-05 20:25 | 25.78816 | -80.31129 | 14 ft | 24 kts | 266° |
| 2026-05-05 20:25 | 25.78807 | -80.31312 | 14 ft | 23 kts | 267° |
| 2026-05-05 20:25 | 25.78795 | -80.31451 | 14 ft | 11 kts | 241° |
| 2026-05-05 20:25 | 25.78751 | -80.31474 | 14 ft | 6 kts | 187° |
| 2026-05-05 20:26 | 25.78731 | -80.31475 | 14 ft | 0 kts | 180° |
| 2026-05-05 20:26 | 25.78727 | -80.31475 | 14 ft | 2 kts | 180° |
| 2026-05-05 20:27 | 25.78699 | -80.31474 | 14 ft | 5 kts | 178° |
| 2026-05-05 20:27 | 25.78656 | -80.31472 | 14 ft | 6 kts | 177° |
| 2026-05-05 20:27 | 25.78618 | -80.31468 | 14 ft | 3 kts | 165° |
| 2026-05-05 20:27 | 25.78611 | -80.31459 | 14 ft | 1 kts | 108° |
| 2026-05-05 20:28 | 25.78610 | -80.31444 | 14 ft | 0 kts | 86° |
| 2026-05-05 20:28 | 25.78614 | -80.31388 | 14 ft | 27 kts | 86° |
| 2026-05-05 20:29 | 25.78631 | -80.31021 | 14 ft | 77 kts | 88° |
| 2026-05-05 20:29 | 25.78668 | -80.30107 | 14 ft | 132 kts | 88° |
| 2026-05-05 20:29 | 25.78708 | -80.29005 | 89 ft | 163 kts | 88° |
| 2026-05-05 20:29 | 25.78730 | -80.27703 | 522 ft | 167 kts | 88° |
| 2026-05-05 20:30 | 25.78758 | -80.26491 | 1098 ft | 164 kts | 85° |
| 2026-05-05 20:30 | 25.78862 | -80.25165 | 1417 ft | 185 kts | 83° |
| 2026-05-05 20:30 | 25.78969 | -80.23689 | 1779 ft | 206 kts | 84° |
| 2026-05-05 20:30 | 25.79135 | -80.22096 | 2253 ft | 219 kts | 77° |
| 2026-05-05 20:31 | 25.79460 | -80.20426 | 2828 ft | 234 kts | 77° |
| 2026-05-05 20:31 | 25.79821 | -80.18659 | 3609 ft | 239 kts | 75° |
| 2026-05-05 20:31 | 25.80371 | -80.16918 | 4358 ft | 243 kts | 54° |
| 2026-05-05 20:31 | 25.81587 | -80.15704 | 5091 ft | 242 kts | 21° |
| 2026-05-05 20:32 | 25.83199 | -80.15389 | 5860 ft | 238 kts | 353° |
| 2026-05-05 20:32 | 25.84870 | -80.15530 | 6561 ft | 247 kts | 354° |
| 2026-05-05 20:32 | 25.86666 | -80.15569 | 7053 ft | 265 kts | 357° |
| 2026-05-05 20:32 | 25.88505 | -80.15561 | 7852 ft | 269 kts | 355° |
| 2026-05-05 20:33 | 25.90371 | -80.15931 | 8372 ft | 282 kts | 339° |
| 2026-05-05 20:33 | 25.92261 | -80.16602 | 9219 ft | 285 kts | 340° |
| 2026-05-05 20:33 | 25.94162 | -80.17252 | 10045 ft | 289 kts | 340° |
| 2026-05-05 20:33 | 25.96110 | -80.17934 | 10661 ft | 300 kts | 340° |
| 2026-05-05 20:34 | 25.98152 | -80.18696 | 11016 ft | 318 kts | 332° |
| 2026-05-05 20:34 | 26.00066 | -80.20048 | 11347 ft | 334 kts | 318° |
| 2026-05-05 20:34 | 26.01860 | -80.21793 | 11658 ft | 353 kts | 317° |
| 2026-05-05 20:34 | 26.03723 | -80.23634 | 12418 ft | 356 kts | 316° |
| 2026-05-05 20:35 | 26.05562 | -80.25496 | 13105 ft | 361 kts | 316° |
| 2026-05-05 20:35 | 26.07427 | -80.27372 | 13866 ft | 362 kts | 317° |
| 2026-05-05 20:35 | 26.09289 | -80.29237 | 14492 ft | 366 kts | 317° |
| 2026-05-05 20:35 | 26.11207 | -80.31152 | 15216 ft | 367 kts | 317° |
| 2026-05-05 20:36 | 26.13106 | -80.33046 | 15826 ft | 370 kts | 317° |
| 2026-05-05 20:36 | 26.15033 | -80.34964 | 16519 ft | 370 kts | 317° |
| 2026-05-05 20:36 | 26.16968 | -80.36890 | 17068 ft | 374 kts | 317° |
| 2026-05-05 20:36 | 26.18907 | -80.38798 | 17662 ft | 376 kts | 317° |
| 2026-05-05 20:37 | 26.20859 | -80.40751 | 18191 ft | 379 kts | 317° |
| 2026-05-05 20:37 | 26.22967 | -80.42574 | 18720 ft | 383 kts | 326° |
| 2026-05-05 20:37 | 26.25313 | -80.43953 | 19238 ft | 386 kts | 332° |
| 2026-05-05 20:37 | 26.27769 | -80.45283 | 19708 ft | 389 kts | 332° |
| 2026-05-05 20:38 | 26.30196 | -80.46591 | 20209 ft | 391 kts | 332° |
| 2026-05-05 20:38 | 26.32647 | -80.47905 | 20702 ft | 392 kts | 332° |
| 2026-05-05 20:38 | 26.35053 | -80.49191 | 21113 ft | 396 kts | 332° |
| 2026-05-05 20:38 | 26.37586 | -80.50542 | 21569 ft | 398 kts | 331° |
| 2026-05-05 20:39 | 26.40092 | -80.51878 | 22032 ft | 400 kts | 331° |
| 2026-05-05 20:39 | 26.42610 | -80.53219 | 22556 ft | 400 kts | 331° |
| 2026-05-05 20:39 | 26.45143 | -80.54569 | 22895 ft | 405 kts | 331° |
| 2026-05-05 20:39 | 26.47705 | -80.55907 | 23381 ft | 406 kts | 334° |
| 2026-05-05 20:40 | 26.50401 | -80.56908 | 23819 ft | 411 kts | 340° |
| 2026-05-05 20:40 | 26.53171 | -80.57795 | 24282 ft | 412 kts | 340° |
| 2026-05-05 20:40 | 26.55935 | -80.58686 | 24620 ft | 416 kts | 340° |
| 2026-05-05 20:40 | 26.58737 | -80.59583 | 25127 ft | 415 kts | 340° |
| 2026-05-05 20:41 | 26.61502 | -80.60466 | 25624 ft | 415 kts | 340° |
| 2026-05-05 20:41 | 26.64312 | -80.61362 | 25981 ft | 418 kts | 340° |
| 2026-05-05 20:41 | 26.67108 | -80.62253 | 26411 ft | 420 kts | 340° |
| 2026-05-05 20:41 | 26.69948 | -80.63138 | 26825 ft | 421 kts | 341° |
| 2026-05-05 20:42 | 26.72781 | -80.64002 | 27217 ft | 423 kts | 341° |
| 2026-05-05 20:42 | 26.75612 | -80.64880 | 27615 ft | 424 kts | 340° |
| 2026-05-05 20:42 | 26.78477 | -80.65756 | 28075 ft | 424 kts | 340° |
| 2026-05-05 20:42 | 26.81360 | -80.66675 | 28380 ft | 427 kts | 340° |
| 2026-05-05 20:43 | 26.84185 | -80.67606 | 28885 ft | 424 kts | 339° |
| 2026-05-05 20:43 | 26.87020 | -80.68540 | 28987 ft | 424 kts | 339° |
| 2026-05-05 20:43 | 26.89882 | -80.69475 | 28989 ft | 430 kts | 340° |
| 2026-05-05 20:44 | 26.95658 | -80.71563 | 28984 ft | 436 kts | 338° |
| 2026-05-05 20:44 | 27.01359 | -80.73679 | 28986 ft | 432 kts | 338° |
| 2026-05-05 20:45 | 27.09953 | -80.76910 | 28994 ft | 435 kts | 338° |
| 2026-05-05 20:45 | 27.15707 | -80.79084 | 29004 ft | 434 kts | 337° |
| 2026-05-05 20:46 | 27.21440 | -80.81258 | 29012 ft | 433 kts | 337° |
| 2026-05-05 20:46 | 27.27166 | -80.83432 | 29006 ft | 432 kts | 337° |
| 2026-05-05 20:47 | 27.32866 | -80.85657 | 29013 ft | 433 kts | 335° |
| 2026-05-05 20:47 | 27.38513 | -80.88025 | 29003 ft | 431 kts | 336° |
| 2026-05-05 20:48 | 27.44199 | -80.90385 | 29006 ft | 433 kts | 335° |
| 2026-05-05 20:48 | 27.49904 | -80.92697 | 29000 ft | 432 kts | 336° |
| 2026-05-05 20:49 | 27.55560 | -80.94988 | 28989 ft | 432 kts | 336° |
| 2026-05-05 20:49 | 27.61253 | -80.97318 | 28989 ft | 433 kts | 336° |
| 2026-05-05 20:50 | 27.66924 | -80.99651 | 28979 ft | 432 kts | 336° |
| 2026-05-05 20:50 | 27.72577 | -81.01987 | 28983 ft | 433 kts | 336° |
| 2026-05-05 20:51 | 27.78155 | -81.04292 | 28979 ft | 433 kts | 335° |
| 2026-05-05 20:51 | 27.83850 | -81.06709 | 28979 ft | 432 kts | 335° |
| 2026-05-05 20:52 | 27.89499 | -81.09090 | 28978 ft | 433 kts | 335° |
| 2026-05-05 20:52 | 27.95126 | -81.11442 | 28972 ft | 430 kts | 336° |
| 2026-05-05 20:53 | 28.00750 | -81.13788 | 28976 ft | 431 kts | 335° |
| 2026-05-05 20:53 | 28.06370 | -81.16273 | 28988 ft | 427 kts | 331° |
| 2026-05-05 20:54 | 28.11783 | -81.19129 | 28998 ft | 432 kts | 332° |
| 2026-05-05 20:54 | 28.17237 | -81.21966 | 28999 ft | 429 kts | 332° |
| 2026-05-05 20:55 | 28.22686 | -81.24744 | 29008 ft | 429 kts | 332° |
| 2026-05-05 20:55 | 28.28171 | -81.27537 | 29012 ft | 431 kts | 332° |
| 2026-05-05 20:56 | 28.33623 | -81.30336 | 29012 ft | 430 kts | 332° |
| 2026-05-05 20:56 | 28.39078 | -81.33166 | 29011 ft | 429 kts | 332° |
| 2026-05-05 20:57 | 28.44511 | -81.35980 | 29012 ft | 428 kts | 332° |
| 2026-05-05 20:57 | 28.49957 | -81.38783 | 29006 ft | 427 kts | 332° |
| 2026-05-05 20:58 | 28.55385 | -81.41543 | 29008 ft | 426 kts | 332° |
| 2026-05-05 20:58 | 28.60812 | -81.44342 | 29005 ft | 428 kts | 332° |
| 2026-05-05 20:59 | 28.66270 | -81.47155 | 28995 ft | 427 kts | 332° |
| 2026-05-05 20:59 | 28.71715 | -81.49959 | 28990 ft | 429 kts | 332° |
| 2026-05-05 21:00 | 28.77181 | -81.52773 | 28985 ft | 428 kts | 332° |
| 2026-05-05 21:00 | 28.82629 | -81.55578 | 28986 ft | 427 kts | 332° |
| 2026-05-05 21:01 | 28.88046 | -81.58373 | 28988 ft | 429 kts | 332° |
| 2026-05-05 21:01 | 28.93742 | -81.60678 | 28993 ft | 436 kts | 346° |
| 2026-05-05 21:02 | 28.99856 | -81.61384 | 28976 ft | 438 kts | 350° |
| 2026-05-05 21:02 | 29.05977 | -81.61976 | 28982 ft | 441 kts | 350° |
| 2026-05-05 21:03 | 29.12078 | -81.62546 | 28991 ft | 437 kts | 350° |
| 2026-05-05 21:03 | 29.18219 | -81.63114 | 28989 ft | 440 kts | 349° |
| 2026-05-05 21:04 | 29.24344 | -81.63679 | 28996 ft | 441 kts | 350° |
| 2026-05-05 21:04 | 29.30477 | -81.64202 | 28998 ft | 440 kts | 350° |
| 2026-05-05 21:05 | 29.36672 | -81.64789 | 28984 ft | 440 kts | 349° |
| 2026-05-05 21:05 | 29.42754 | -81.65362 | 28991 ft | 437 kts | 349° |
| 2026-05-05 21:06 | 29.48881 | -81.65932 | 29006 ft | 443 kts | 349° |
| 2026-05-05 21:06 | 29.55044 | -81.66502 | 28992 ft | 443 kts | 349° |
| 2026-05-05 21:07 | 29.61223 | -81.67060 | 28992 ft | 444 kts | 350° |
| 2026-05-05 21:07 | 29.67398 | -81.67628 | 28993 ft | 441 kts | 348° |
| 2026-05-05 21:08 | 29.73324 | -81.69283 | 28995 ft | 436 kts | 338° |
| 2026-05-05 21:08 | 29.79109 | -81.71413 | 28998 ft | 434 kts | 338° |
| 2026-05-05 21:09 | 29.84920 | -81.73520 | 28987 ft | 434 kts | 338° |
| 2026-05-05 21:09 | 29.90687 | -81.75639 | 28980 ft | 434 kts | 338° |
| 2026-05-05 21:10 | 29.96464 | -81.77738 | 28996 ft | 433 kts | 338° |
| 2026-05-05 21:10 | 30.02291 | -81.79902 | 28986 ft | 436 kts | 338° |
| 2026-05-05 21:11 | 30.08027 | -81.82056 | 28997 ft | 432 kts | 337° |
| 2026-05-05 21:11 | 30.13795 | -81.84293 | 29007 ft | 435 kts | 337° |
| 2026-05-05 21:12 | 30.19545 | -81.86507 | 29006 ft | 436 kts | 338° |
| 2026-05-05 21:12 | 30.25320 | -81.88709 | 29010 ft | 433 kts | 338° |
| 2026-05-05 21:13 | 30.31074 | -81.90839 | 29016 ft | 435 kts | 338° |
| 2026-05-05 21:13 | 30.36921 | -81.93033 | 29013 ft | 437 kts | 337° |
| 2026-05-05 21:14 | 30.42722 | -81.95231 | 29006 ft | 437 kts | 337° |
| 2026-05-05 21:14 | 30.48555 | -81.97451 | 29003 ft | 437 kts | 337° |
| 2026-05-05 21:15 | 30.54374 | -81.99670 | 28987 ft | 441 kts | 337° |
| 2026-05-05 21:15 | 30.60232 | -82.01910 | 28977 ft | 441 kts | 337° |
| 2026-05-05 21:16 | 30.66091 | -82.04153 | 28982 ft | 439 kts | 337° |
| 2026-05-05 21:16 | 30.71965 | -82.06405 | 28968 ft | 441 kts | 337° |
| 2026-05-05 21:17 | 30.77847 | -82.08663 | 28973 ft | 443 kts | 337° |
| 2026-05-05 21:17 | 30.83743 | -82.10944 | 28965 ft | 442 kts | 336° |
| 2026-05-05 21:18 | 30.89586 | -82.13257 | 28965 ft | 439 kts | 337° |
| 2026-05-05 21:18 | 30.95441 | -82.15488 | 28968 ft | 445 kts | 338° |
| 2026-05-05 21:19 | 31.01341 | -82.17735 | 28966 ft | 440 kts | 337° |
| 2026-05-05 21:19 | 31.07235 | -82.20000 | 28966 ft | 443 kts | 337° |
| 2026-05-05 21:20 | 31.13152 | -82.22285 | 28982 ft | 444 kts | 337° |
| 2026-05-05 21:20 | 31.19025 | -82.24557 | 28984 ft | 442 kts | 337° |
| 2026-05-05 21:21 | 31.24896 | -82.26884 | 28989 ft | 442 kts | 336° |
| 2026-05-05 21:21 | 31.30723 | -82.29191 | 28983 ft | 441 kts | 337° |
| 2026-05-05 21:22 | 31.36542 | -82.31504 | 28987 ft | 441 kts | 336° |
| 2026-05-05 21:22 | 31.42442 | -82.33799 | 28981 ft | 444 kts | 338° |
| 2026-05-05 21:23 | 31.48291 | -82.36002 | 28981 ft | 440 kts | 337° |
| 2026-05-05 21:23 | 31.54175 | -82.38269 | 28986 ft | 444 kts | 337° |
| 2026-05-05 21:24 | 31.60016 | -82.40604 | 28982 ft | 440 kts | 336° |
| 2026-05-05 21:24 | 31.65828 | -82.42907 | 28979 ft | 441 kts | 337° |
| 2026-05-05 21:25 | 31.71680 | -82.45213 | 28974 ft | 441 kts | 337° |
| 2026-05-05 21:25 | 31.77533 | -82.47516 | 28972 ft | 444 kts | 337° |
| 2026-05-05 21:26 | 31.83435 | -82.49838 | 28979 ft | 444 kts | 337° |
| 2026-05-05 21:26 | 31.89277 | -82.52138 | 28984 ft | 441 kts | 337° |
| 2026-05-05 21:27 | 31.95056 | -82.54696 | 28987 ft | 437 kts | 328° |
| 2026-05-05 21:27 | 31.99905 | -82.58839 | 28992 ft | 432 kts | 318° |
| 2026-05-05 21:28 | 32.04530 | -82.63398 | 28988 ft | 431 kts | 317° |
| 2026-05-05 21:28 | 32.09104 | -82.68022 | 29000 ft | 431 kts | 316° |
| 2026-05-05 21:29 | 32.13663 | -82.72701 | 28479 ft | 436 kts | 316° |
| 2026-05-05 21:29 | 32.15941 | -82.75035 | 28006 ft | 429 kts | 316° |
| 2026-05-05 21:29 | 32.18201 | -82.77351 | 27553 ft | 421 kts | 317° |
| 2026-05-05 21:30 | 32.20401 | -82.79607 | 27141 ft | 419 kts | 317° |
| 2026-05-05 21:30 | 32.22614 | -82.81878 | 26717 ft | 420 kts | 316° |
| 2026-05-05 21:30 | 32.24797 | -82.84117 | 26261 ft | 419 kts | 316° |
| 2026-05-05 21:30 | 32.26997 | -82.86376 | 25786 ft | 416 kts | 317° |
| 2026-05-05 21:31 | 32.29182 | -82.88621 | 25352 ft | 413 kts | 317° |
| 2026-05-05 21:31 | 32.31274 | -82.90769 | 25188 ft | 400 kts | 316° |
| 2026-05-05 21:31 | 32.33304 | -82.92841 | 24969 ft | 388 kts | 317° |
| 2026-05-05 21:31 | 32.35332 | -82.94891 | 24650 ft | 379 kts | 317° |
| 2026-05-05 21:32 | 32.37316 | -82.96908 | 24186 ft | 365 kts | 317° |
| 2026-05-05 21:32 | 32.39201 | -82.98827 | 24018 ft | 364 kts | 317° |
| 2026-05-05 21:32 | 32.41115 | -83.00752 | 23633 ft | 380 kts | 317° |
| 2026-05-05 21:32 | 32.43114 | -83.02774 | 23235 ft | 381 kts | 317° |
| 2026-05-05 21:33 | 32.45079 | -83.04773 | 22851 ft | 374 kts | 317° |
| 2026-05-05 21:33 | 32.47038 | -83.06776 | 22467 ft | 370 kts | 316° |
| 2026-05-05 21:33 | 32.48957 | -83.08746 | 22103 ft | 369 kts | 317° |
| 2026-05-05 21:33 | 32.50894 | -83.10738 | 21738 ft | 368 kts | 317° |
| 2026-05-05 21:34 | 32.52825 | -83.12728 | 21372 ft | 367 kts | 316° |
| 2026-05-05 21:34 | 32.54751 | -83.14750 | 21010 ft | 365 kts | 316° |
| 2026-05-05 21:34 | 32.56661 | -83.16756 | 20648 ft | 364 kts | 316° |
| 2026-05-05 21:34 | 32.58553 | -83.18741 | 20288 ft | 362 kts | 316° |
| 2026-05-05 21:35 | 32.60402 | -83.20712 | 19973 ft | 359 kts | 316° |
| 2026-05-05 21:35 | 32.62294 | -83.22709 | 19627 ft | 359 kts | 316° |
| 2026-05-05 21:35 | 32.64149 | -83.24656 | 19291 ft | 358 kts | 316° |
| 2026-05-05 21:35 | 32.66028 | -83.26619 | 18964 ft | 357 kts | 316° |
| 2026-05-05 21:36 | 32.67872 | -83.28543 | 18628 ft | 356 kts | 316° |
| 2026-05-05 21:36 | 32.69736 | -83.30486 | 18293 ft | 354 kts | 316° |
| 2026-05-05 21:36 | 32.71592 | -83.32419 | 17944 ft | 352 kts | 316° |
| 2026-05-05 21:36 | 32.73445 | -83.34350 | 17605 ft | 351 kts | 316° |
| 2026-05-05 21:37 | 32.75278 | -83.36258 | 17263 ft | 350 kts | 316° |
| 2026-05-05 21:37 | 32.77113 | -83.38172 | 16935 ft | 349 kts | 316° |
| 2026-05-05 21:37 | 32.78950 | -83.40088 | 16607 ft | 349 kts | 316° |
| 2026-05-05 21:37 | 32.80772 | -83.41989 | 16278 ft | 347 kts | 316° |
| 2026-05-05 21:38 | 32.82590 | -83.43887 | 15948 ft | 345 kts | 316° |
| 2026-05-05 21:38 | 32.84432 | -83.45809 | 15628 ft | 345 kts | 316° |
| 2026-05-05 21:38 | 32.86231 | -83.47690 | 15310 ft | 344 kts | 316° |
| 2026-05-05 21:38 | 32.88032 | -83.49573 | 14985 ft | 344 kts | 316° |
| 2026-05-05 21:39 | 32.89850 | -83.51475 | 14648 ft | 343 kts | 316° |
| 2026-05-05 21:39 | 32.91634 | -83.53342 | 14350 ft | 342 kts | 316° |
| 2026-05-05 21:39 | 32.93415 | -83.55209 | 13989 ft | 340 kts | 316° |
| 2026-05-05 21:39 | 32.95158 | -83.57031 | 13931 ft | 323 kts | 316° |
| 2026-05-05 21:40 | 32.96850 | -83.58804 | 13615 ft | 328 kts | 316° |
| 2026-05-05 21:40 | 32.98603 | -83.60641 | 13227 ft | 327 kts | 316° |
| 2026-05-05 21:40 | 33.00299 | -83.62419 | 12851 ft | 323 kts | 316° |
| 2026-05-05 21:40 | 33.01976 | -83.64177 | 12520 ft | 320 kts | 316° |
| 2026-05-05 21:41 | 33.03669 | -83.65953 | 12198 ft | 321 kts | 315° |
| 2026-05-05 21:41 | 33.05342 | -83.67709 | 11858 ft | 322 kts | 315° |
| 2026-05-05 21:41 | 33.07034 | -83.69486 | 11473 ft | 321 kts | 315° |
| 2026-05-05 21:41 | 33.08709 | -83.71246 | 11159 ft | 316 kts | 315° |
| 2026-05-05 21:42 | 33.10323 | -83.72940 | 11113 ft | 302 kts | 315° |
| 2026-05-05 21:42 | 33.11878 | -83.74574 | 11095 ft | 286 kts | 315° |
| 2026-05-05 21:42 | 33.13326 | -83.76096 | 11067 ft | 272 kts | 315° |
| 2026-05-05 21:42 | 33.14789 | -83.77644 | 10799 ft | 284 kts | 315° |
| 2026-05-05 21:43 | 33.16291 | -83.79233 | 10382 ft | 290 kts | 315° |
| 2026-05-05 21:43 | 33.17783 | -83.80807 | 10278 ft | 278 kts | 315° |
| 2026-05-05 21:43 | 33.19226 | -83.82355 | 9805 ft | 283 kts | 313° |
| 2026-05-05 21:43 | 33.20610 | -83.84006 | 9506 ft | 279 kts | 312° |
| 2026-05-05 21:44 | 33.21980 | -83.85636 | 9275 ft | 273 kts | 312° |
| 2026-05-05 21:44 | 33.23315 | -83.87223 | 9049 ft | 262 kts | 311° |
| 2026-05-05 21:44 | 33.24594 | -83.88747 | 8854 ft | 260 kts | 311° |
| 2026-05-05 21:44 | 33.25903 | -83.90311 | 8623 ft | 271 kts | 312° |
| 2026-05-05 21:45 | 33.27261 | -83.91929 | 8392 ft | 271 kts | 311° |
| 2026-05-05 21:45 | 33.28581 | -83.93504 | 8067 ft | 272 kts | 312° |
| 2026-05-05 21:45 | 33.29916 | -83.95097 | 7947 ft | 264 kts | 312° |
| 2026-05-05 21:45 | 33.31234 | -83.96673 | 7959 ft | 266 kts | 312° |
| 2026-05-05 21:46 | 33.32570 | -83.98272 | 7959 ft | 270 kts | 312° |
| 2026-05-05 21:46 | 33.33893 | -83.99856 | 7955 ft | 269 kts | 312° |
| 2026-05-05 21:46 | 33.35226 | -84.01426 | 7954 ft | 269 kts | 317° |
| 2026-05-05 21:46 | 33.36893 | -84.02477 | 7988 ft | 276 kts | 345° |
| 2026-05-05 21:47 | 33.38840 | -84.02690 | 7976 ft | 282 kts | 355° |
| 2026-05-05 21:47 | 33.40828 | -84.02766 | 7948 ft | 280 kts | 355° |
| 2026-05-05 21:47 | 33.42790 | -84.02837 | 7954 ft | 280 kts | 355° |
| 2026-05-05 21:47 | 33.44738 | -84.02891 | 7959 ft | 281 kts | 355° |
| 2026-05-05 21:48 | 33.46719 | -84.03010 | 7946 ft | 280 kts | 348° |
| 2026-05-05 21:48 | 33.48653 | -84.03446 | 7724 ft | 283 kts | 345° |
| 2026-05-05 21:48 | 33.50579 | -84.03905 | 7486 ft | 278 kts | 346° |
| 2026-05-05 21:48 | 33.52461 | -84.04347 | 7245 ft | 274 kts | 346° |
| 2026-05-05 21:49 | 33.54340 | -84.04791 | 7016 ft | 273 kts | 346° |
| 2026-05-05 21:49 | 33.56224 | -84.05236 | 6781 ft | 275 kts | 346° |
| 2026-05-05 21:49 | 33.58109 | -84.05681 | 6555 ft | 276 kts | 347° |
| 2026-05-05 21:49 | 33.59987 | -84.06149 | 6330 ft | 274 kts | 340° |
| 2026-05-05 21:50 | 33.61613 | -84.07232 | 6191 ft | 256 kts | 312° |
| 2026-05-05 21:50 | 33.62510 | -84.08994 | 6002 ft | 241 kts | 282° |
| 2026-05-05 21:50 | 33.62780 | -84.10960 | 5645 ft | 239 kts | 273° |
| 2026-05-05 21:50 | 33.62926 | -84.12953 | 5297 ft | 240 kts | 271° |
| 2026-05-05 21:51 | 33.63020 | -84.14919 | 5052 ft | 237 kts | 270° |
| 2026-05-05 21:51 | 33.63105 | -84.16898 | 4769 ft | 234 kts | 270° |
| 2026-05-05 21:51 | 33.63169 | -84.18851 | 4343 ft | 235 kts | 267° |
| 2026-05-05 21:51 | 33.63163 | -84.20830 | 4011 ft | 234 kts | 266° |
| 2026-05-05 21:52 | 33.63170 | -84.24613 | 3631 ft | 221 kts | 266° |
| 2026-05-05 21:52 | 33.63173 | -84.26437 | 3414 ft | 213 kts | 266° |
| 2026-05-05 21:52 | 33.63177 | -84.28190 | 3133 ft | 205 kts | 266° |
| 2026-05-05 21:53 | 33.63181 | -84.29823 | 2859 ft | 188 kts | 266° |
| 2026-05-05 21:53 | 33.63183 | -84.31316 | 2624 ft | 172 kts | 266° |
| 2026-05-05 21:53 | 33.63184 | -84.32719 | 2451 ft | 170 kts | 264° |
| 2026-05-05 21:53 | 33.63180 | -84.34155 | 2231 ft | 174 kts | 266° |
| 2026-05-05 21:54 | 33.63181 | -84.35605 | 2000 ft | 172 kts | 266° |
| 2026-05-05 21:54 | 33.63182 | -84.37022 | 1771 ft | 169 kts | 264° |
| 2026-05-05 21:54 | 33.63182 | -84.38404 | 1555 ft | 162 kts | 266° |
| 2026-05-05 21:54 | 33.63186 | -84.39671 | 1349 ft | 142 kts | 264° |
| 2026-05-05 21:55 | 33.63186 | -84.40793 | 1182 ft | 133 kts | 264° |
| 2026-05-05 21:55 | 33.63182 | -84.41952 | 1022 ft | 145 kts | 265° |
| 2026-05-05 21:55 | 33.63176 | -84.43082 | 1003 ft | 114 kts | 270° |
| 2026-05-05 21:55 | 33.63180 | -84.43818 | 1011 ft | 68 kts | 271° |
| 2026-05-05 21:56 | 33.63180 | -84.44217 | 1017 ft | 42 kts | 270° |
| 2026-05-05 21:56 | 33.63182 | -84.44556 | 1016 ft | 36 kts | 270° |
| 2026-05-05 21:56 | 33.63187 | -84.44730 | 1013 ft | 13 kts | 288° |
| 2026-05-05 21:56 | 33.63249 | -84.44782 | 1013 ft | 10 kts | 358° |
| 2026-05-05 21:57 | 33.63315 | -84.44780 | 1014 ft | 8 kts | 1° |
| 2026-05-05 21:57 | 33.63368 | -84.44779 | 1015 ft | 7 kts | 1° |
| 2026-05-05 21:57 | 33.63417 | -84.44779 | 1015 ft | 6 kts | 1° |
| 2026-05-05 21:57 | 33.63461 | -84.44778 | 1015 ft | 6 kts | 1° |
| 2026-05-05 21:58 | 33.63490 | -84.44779 | 1016 ft | 5 kts | 359° |
| 2026-05-05 21:58 | 33.63521 | -84.44780 | 1016 ft | 5 kts | 359° |
| 2026-05-05 21:58 | 33.63560 | -84.44781 | 1017 ft | 6 kts | 360° |
| 2026-05-05 21:58 | 33.63614 | -84.44778 | 1018 ft | 8 kts | 9° |
| 2026-05-05 21:59 | 33.63659 | -84.44746 | 1018 ft | 6 kts | 53° |
| 2026-05-05 21:59 | 33.63670 | -84.44701 | 1019 ft | 6 kts | 92° |
| 2026-05-05 21:59 | 33.63668 | -84.44632 | 1020 ft | 7 kts | 92° |
| 2026-05-05 21:59 | 33.63667 | -84.44562 | 1020 ft | 9 kts | 91° |
| 2026-05-05 22:00 | 33.63665 | -84.44485 | 1020 ft | 9 kts | 91° |
| 2026-05-05 22:00 | 33.63663 | -84.44402 | 1020 ft | 10 kts | 91° |
| 2026-05-05 22:00 | 33.63663 | -84.44314 | 1020 ft | 11 kts | 91° |
| 2026-05-05 22:00 | 33.63662 | -84.44222 | 1020 ft | 12 kts | 91° |
| 2026-05-05 22:01 | 33.63660 | -84.44119 | 1019 ft | 12 kts | 89° |
| 2026-05-05 22:01 | 33.63662 | -84.44011 | 1017 ft | 13 kts | 89° |
| 2026-05-05 22:01 | 33.63663 | -84.43877 | 1015 ft | 17 kts | 90° |
| 2026-05-05 22:01 | 33.63683 | -84.43744 | 1014 ft | 16 kts | 45° |
| 2026-05-05 22:02 | 33.63762 | -84.43720 | 1014 ft | 8 kts | 4° |
| 2026-05-05 22:02 | 33.63808 | -84.43717 | 1014 ft | 5 kts | 3° |
| 2026-05-05 22:02 | 33.63830 | -84.43710 | 1014 ft | 2 kts | 37° |
| 2026-05-05 22:02 | 33.63833 | -84.43706 | 1014 ft | 0 kts | 52° |
| 2026-05-05 22:03 | 33.63834 | -84.43699 | 1014 ft | 2 kts | 83° |
| 2026-05-05 22:03 | 33.63834 | -84.43666 | 1014 ft | 4 kts | 90° |
| 2026-05-05 22:03 | 33.63834 | -84.43650 | 1013 ft | 0 kts | 91° |